Flight Track Log - Related Links

Times and Time Zones

All times are in EDT time to prevent confusion due to time zone crossing. See the USC105 flight status page for this flight to view local times or setup timezone preferences in your user account.

Time Position Orientation Groundspeed Altitude Reporting Facility
EDT Latitude Longitude Course Direction KTS MPH feet Rate Location/Type
Wed 10:02:38 PM 39.8061 -82.9367 245° Southwest 116 133 900  Level Indianapolis Center
Wed 10:03:32 PM 39.7958 -82.9653 245° Southwest 112 129 2,200 1,188 Climbing Indianapolis Center
Wed 10:04:19 PM 39.8222 -82.9556 16° North 124 143 2,900 904 Climbing Indianapolis Center
Wed 10:04:45 PM 39.8369 -82.9456 28° Northeast 149 171 3,300 774 Climbing Indianapolis Center
Wed 10:05:21 PM 39.8575 -82.9361 19° North 130 150 3,700 557 Climbing Indianapolis Center
Wed 10:06:22 PM 39.8947 -82.9106 28° Northeast 140 161 4,200 492 Climbing Indianapolis Center
Wed 10:07:23 PM 39.9339 -82.8836 28° Northeast 151 174 4,700 541 Climbing Indianapolis Center
Wed 10:08:24 PM 39.9736 -82.8544 29° Northeast 157 181 5,300 608 Climbing Indianapolis Center
Wed 10:08:42 PM 39.9858 -82.8483 21° North 159 183 5,500 689 Climbing Indianapolis Center
Wed 10:09:25 PM 40.0139 -82.8281 29° Northeast 161 185 6,000 689 Climbing Indianapolis Center
Wed 10:09:43 PM 40.0256 -82.8175 35° Northeast 161 185 6,200 581 Climbing Indianapolis Center
Wed 10:10:27 PM 40.0511 -82.7986 29° Northeast 157 181 6,600 545 Climbing Indianapolis Center
Wed 10:10:49 PM 40.0672 -82.7894 24° Northeast 160 184 6,800 393 Climbing Indianapolis Center
Wed 10:11:28 PM 40.0914 -82.7708 31° Northeast 161 185 7,000 120 Climbing Indianapolis Center
Wed 10:12:29 PM 40.1336 -82.7356 33° Northeast 177 204 7,000  Level Indianapolis Center
Wed 10:13:30 PM 40.1778 -82.7028 30° Northeast 181 208 7,000 -49 Level Indianapolis Center
Wed 10:14:31 PM 40.2242 -82.6672 30° Northeast 191 220 6,900 -49 Descending Indianapolis Center
Wed 10:15:33 PM 40.2744 -82.6314 29° Northeast 187 215 6,900 49 Level Indianapolis Center
Wed 10:16:34 PM 40.3200 -82.5947 32° Northeast 189 217 7,000 49 Climbing Indianapolis Center
Wed 10:17:35 PM 40.3653 -82.5564 33° Northeast 191 220 7,000  Level Indianapolis Center
Wed 10:18:36 PM 40.4131 -82.5239 27° Northeast 192 221 7,000  Level Indianapolis Center
Wed 10:19:37 PM 40.4597 -82.4892 30° Northeast 191 220 7,000 -49 Level Indianapolis Center
Wed 10:20:38 PM 40.5067 -82.4542 30° Northeast 192 221 6,900 -49 Descending Indianapolis Center
Wed 10:21:39 PM 40.5531 -82.4178 31° Northeast 193 222 6,900 49 Level Indianapolis Center
Wed 10:22:40 PM 40.6006 -82.3836 29° Northeast 193 222 7,000 49 Climbing Indianapolis Center
Wed 10:23:41 PM 40.6461 -82.3481 31° Northeast 190 219 7,000 -73 Level Indianapolis Center
Wed 10:24:02 PM 40.6622 -82.3375 26° Northeast 192 221 6,900 -74 Descending Cleveland Center
Wed 10:25:02 PM 40.7108 -82.3006 30° Northeast 193 222 6,900 50 Level Cleveland Center
Wed 10:26:03 PM 40.7614 -82.2636 29° Northeast 193 222 7,000  Climbing Cleveland Center
Wed 10:27:04 PM 40.8097 -82.2319 26° Northeast 192 221 6,900 -50 Descending Cleveland Center
Wed 10:28:04 PM 40.8522 -82.1917 36° Northeast 193 222 6,900  Level Cleveland Center
Wed 10:29:05 PM 40.9006 -82.1572 28° Northeast 192 221 6,900 52 Level Cleveland Center
Wed 10:29:59 PM 40.9447 -82.1253 29° Northeast 195 224 7,000 52 Climbing Cleveland Center
Wed 10:31:00 PM 40.9911 -82.0878 31° Northeast 194 223 7,000 -49 Level Cleveland Center
Wed 10:32:01 PM 41.0375 -82.0558 27° Northeast 193 222 6,900 -50 Descending Cleveland Center
Wed 10:33:01 PM 41.0817 -82.0183 33° Northeast 193 222 6,900 -50 Level Cleveland Center
Wed 10:34:02 PM 41.1300 -81.9808 30° Northeast 194 223 6,800 -393 Descending Cleveland Center
Wed 10:35:03 PM 41.1806 -81.9433 29° Northeast 212 244 6,100 -496 Descending Cleveland Center
Wed 10:36:03 PM 41.2186 -81.8889 47° Northeast 206 237 5,800 -595 Descending Cleveland Center
Wed 10:37:04 PM 41.2633 -81.8261 47° Northeast 213 245 4,900 -694 Descending Cleveland Center
Wed 10:38:04 PM 41.3075 -81.7772 40° Northeast 211 243 4,400 -595 Descending Cleveland Center
Wed 10:39:05 PM 41.3456 -81.7228 47° Northeast 221 254 3,700 -645 Descending Cleveland Center
Wed 10:40:05 PM 41.3753 -81.6567 59° Northeast 215 247 3,100 -397 Descending Cleveland Center
Wed 10:41:06 PM 41.4133 -81.6131 41° Northeast 179 206 2,900 -295 Descending Cleveland Center
Wed 10:42:07 PM 41.4550 -81.6192 354° North 155 178 2,500 -496 Descending Cleveland Center
Wed 10:43:07 PM 41.5050 -81.6283 352° North 169 194 1,900 -645 Descending Cleveland Center
Wed 10:44:08 PM 41.5319 -81.6511 328° Northwest 117 135 1,200 -689 Descending Cleveland Center

Login

Don't have an account? Register now (free) for customized features, flight alerts, and more!